sensor_id;sensor_type;location;lat;lon;timestamp;pressure;altitude;pressure_sealevel;temperature
15453;BMP280;7827;53.594;9.938;2023-12-22T00:00:36;35215.63;;;-135.29
15453;BMP280;7827;53.594;9.938;2023-12-22T00:03:04;35204.00;;;-135.29
15453;BMP280;7827;53.594;9.938;2023-12-22T00:05:34;35306.72;;;-135.29
15453;BMP280;7827;53.594;9.938;2023-12-22T00:08:04;35419.16;;;-135.29
15453;BMP280;7827;53.594;9.938;2023-12-22T00:10:32;35165.22;;;-135.29
15453;BMP280;7827;53.594;9.938;2023-12-22T00:13:01;35316.41;;;-135.29
15453;BMP280;7827;53.594;9.938;2023-12-22T00:15:29;35287.34;;;-135.29
15453;BMP280;7827;53.594;9.938;2023-12-22T00:17:58;35310.59;;;-135.29
15453;BMP280;7827;53.594;9.938;2023-12-22T00:20:26;35316.41;;;-135.29
15453;BMP280;7827;53.594;9.938;2023-12-22T00:22:56;35256.31;;;-135.29
15453;BMP280;7827;53.594;9.938;2023-12-22T00:25:24;35320.28;;;-135.29
15453;BMP280;7827;53.594;9.938;2023-12-22T00:27:53;35271.84;;;-135.29
15453;BMP280;7827;53.594;9.938;2023-12-22T00:30:21;35262.16;;;-135.29
15453;BMP280;7827;53.594;9.938;2023-12-22T00:32:51;35291.22;;;-135.29
15453;BMP280;7827;53.594;9.938;2023-12-22T00:35:20;35277.66;;;-135.29
15453;BMP280;7827;53.594;9.938;2023-12-22T00:37:48;35314.47;;;-135.29
15453;BMP280;7827;53.594;9.938;2023-12-22T00:40:19;35221.44;;;-135.29
15453;BMP280;7827;53.594;9.938;2023-12-22T00:42:47;35213.69;;;-135.29
15453;BMP280;7827;53.594;9.938;2023-12-22T00:45:16;35302.84;;;-135.29
15453;BMP280;7827;53.594;9.938;2023-12-22T00:47:44;35273.78;;;-135.29
15453;BMP280;7827;53.594;9.938;2023-12-22T00:50:13;35297.03;;;-135.29
15453;BMP280;7827;53.594;9.938;2023-12-22T00:52:42;35347.44;;;-135.29
15453;BMP280;7827;53.594;9.938;2023-12-22T00:55:10;35417.22;;;-135.29
15453;BMP280;7827;53.594;9.938;2023-12-22T00:57:40;35409.47;;;-135.29
15453;BMP280;7827;53.594;9.938;2023-12-22T01:00:11;35518.03;;;-135.29
15453;BMP280;7827;53.594;9.938;2023-12-22T01:02:40;35388.16;;;-135.29
15453;BMP280;7827;53.594;9.938;2023-12-22T01:05:08;35403.66;;;-135.29
15453;BMP280;7827;53.594;9.938;2023-12-22T01:07:37;35399.78;;;-135.29
15453;BMP280;7827;53.594;9.938;2023-12-22T01:10:07;35407.53;;;-135.29
15453;BMP280;7827;53.594;9.938;2023-12-22T01:12:36;35452.13;;;-135.29
15453;BMP280;7827;53.594;9.938;2023-12-22T01:15:07;35465.69;;;-135.29
15453;BMP280;7827;53.594;9.938;2023-12-22T01:17:36;35428.84;;;-135.29
15453;BMP280;7827;53.594;9.938;2023-12-22T01:20:05;35500.59;;;-135.29
15453;BMP280;7827;53.594;9.938;2023-12-22T01:22:33;35562.63;;;-135.29
15453;BMP280;7827;53.594;9.938;2023-12-22T01:25:06;35673.13;;;-135.29
15453;BMP280;7827;53.594;9.938;2023-12-22T01:27:34;35686.69;;;-135.29
15453;BMP280;7827;53.594;9.938;2023-12-22T01:30:03;35731.28;;;-135.29
15453;BMP280;7827;53.594;9.938;2023-12-22T01:32:33;36016.31;;;-135.29
15453;BMP280;7827;53.594;9.938;2023-12-22T01:35:05;35965.91;;;-135.29
15453;BMP280;7827;53.594;9.938;2023-12-22T01:37:37;36033.75;;;-135.29
15453;BMP280;7827;53.594;9.938;2023-12-22T01:40:07;36121.00;;;-135.29
15453;BMP280;7827;53.594;9.938;2023-12-22T01:42:36;36175.31;;;-135.29
15453;BMP280;7827;53.594;9.938;2023-12-22T01:45:05;36285.84;;;-135.29
15453;BMP280;7827;53.594;9.938;2023-12-22T01:47:36;36216.03;;;-135.29
15453;BMP280;7827;53.594;9.938;2023-12-22T01:50:06;36301.34;;;-135.29
15453;BMP280;7827;53.594;9.938;2023-12-22T01:52:38;36185.00;;;-135.29
15453;BMP280;7827;53.594;9.938;2023-12-22T01:55:10;36249.00;;;-135.29
15453;BMP280;7827;53.594;9.938;2023-12-22T01:57:41;36152.03;;;-135.29
15453;BMP280;7827;53.594;9.938;2023-12-22T02:00:11;36229.59;;;-135.29
15453;BMP280;7827;53.594;9.938;2023-12-22T02:02:41;36146.22;;;-135.29
15453;BMP280;7827;53.594;9.938;2023-12-22T02:05:11;36146.22;;;-135.29
15453;BMP280;7827;53.594;9.938;2023-12-22T02:07:41;36169.50;;;-135.29
15453;BMP280;7827;53.594;9.938;2023-12-22T02:10:10;36144.28;;;-135.29
15453;BMP280;7827;53.594;9.938;2023-12-22T02:12:39;36012.44;;;-135.29
15453;BMP280;7827;53.594;9.938;2023-12-22T02:15:09;36146.22;;;-135.29
15453;BMP280;7827;53.594;9.938;2023-12-22T02:17:52;36037.63;;;-135.29
15453;BMP280;7827;53.594;9.938;2023-12-22T02:20:23;36084.19;;;-135.29
15453;BMP280;7827;53.594;9.938;2023-12-22T02:22:54;36014.38;;;-135.29
15453;BMP280;7827;53.594;9.938;2023-12-22T02:25:22;36012.44;;;-135.29
15453;BMP280;7827;53.594;9.938;2023-12-22T02:27:57;36039.56;;;-135.29
15453;BMP280;7827;53.594;9.938;2023-12-22T02:30:32;36026.00;;;-135.29
15453;BMP280;7827;53.594;9.938;2023-12-22T02:33:06;35979.47;;;-135.29
15453;BMP280;7827;53.594;9.938;2023-12-22T02:35:38;35998.84;;;-135.29
15453;BMP280;7827;53.594;9.938;2023-12-22T02:38:12;35917.41;;;-135.29
15453;BMP280;7827;53.594;9.938;2023-12-22T02:40:41;36026.00;;;-135.29
15453;BMP280;7827;53.594;9.938;2023-12-22T02:43:10;35934.88;;;-135.29
15453;BMP280;7827;53.594;9.938;2023-12-22T02:45:39;35921.31;;;-135.29
15453;BMP280;7827;53.594;9.938;2023-12-22T02:48:08;35950.38;;;-135.29
15453;BMP280;7827;53.594;9.938;2023-12-22T02:50:36;36088.06;;;-135.29
15453;BMP280;7827;53.594;9.938;2023-12-22T02:53:05;36008.56;;;-135.29
15453;BMP280;7827;53.594;9.938;2023-12-22T02:55:34;35975.59;;;-135.29
15453;BMP280;7827;53.594;9.938;2023-12-22T02:58:03;35996.91;;;-135.29
15453;BMP280;7827;53.594;9.938;2023-12-22T03:00:31;35905.78;;;-135.29
15453;BMP280;7827;53.594;9.938;2023-12-22T03:03:00;35960.06;;;-135.29
15453;BMP280;7827;53.594;9.938;2023-12-22T03:05:28;36105.50;;;-135.29
15453;BMP280;7827;53.594;9.938;2023-12-22T03:07:57;36097.75;;;-135.29
15453;BMP280;7827;53.594;9.938;2023-12-22T03:10:25;36126.84;;;-135.29
15453;BMP280;7827;53.594;9.938;2023-12-22T03:12:55;36150.09;;;-135.29
15453;BMP280;7827;53.594;9.938;2023-12-22T03:15:24;36062.84;;;-135.29
15453;BMP280;7827;53.594;9.938;2023-12-22T03:17:52;36047.34;;;-135.29
15453;BMP280;7827;53.594;9.938;2023-12-22T03:20:21;36173.38;;;-135.29
15453;BMP280;7827;53.594;9.938;2023-12-22T03:22:49;36169.50;;;-135.29
15453;BMP280;7827;53.594;9.938;2023-12-22T03:25:18;36088.06;;;-135.29
15453;BMP280;7827;53.594;9.938;2023-12-22T03:27:47;36249.00;;;-135.29
15453;BMP280;7827;53.594;9.938;2023-12-22T03:30:17;36113.25;;;-135.29
15453;BMP280;7827;53.594;9.938;2023-12-22T03:32:45;36020.19;;;-135.29
15453;BMP280;7827;53.594;9.938;2023-12-22T03:35:14;36134.59;;;-135.29
15453;BMP280;7827;53.594;9.938;2023-12-22T03:37:42;36022.13;;;-135.29
15453;BMP280;7827;53.594;9.938;2023-12-22T03:40:12;36076.41;;;-135.29
15453;BMP280;7827;53.594;9.938;2023-12-22T03:42:40;36126.84;;;-135.29
15453;BMP280;7827;53.594;9.938;2023-12-22T03:45:09;36128.78;;;-135.29
15453;BMP280;7827;53.594;9.938;2023-12-22T03:47:38;36088.06;;;-135.29
15453;BMP280;7827;53.594;9.938;2023-12-22T03:50:07;36097.75;;;-135.29
15453;BMP280;7827;53.594;9.938;2023-12-22T03:52:36;36124.91;;;-135.29
15453;BMP280;7827;53.594;9.938;2023-12-22T03:55:05;35971.72;;;-135.29
15453;BMP280;7827;53.594;9.938;2023-12-22T03:57:34;35944.56;;;-135.29
15453;BMP280;7827;53.594;9.938;2023-12-22T04:00:03;35878.66;;;-135.29
15453;BMP280;7827;53.594;9.938;2023-12-22T04:02:32;36014.38;;;-135.29
15453;BMP280;7827;53.594;9.938;2023-12-22T04:05:02;35975.59;;;-135.29
15453;BMP280;7827;53.594;9.938;2023-12-22T04:07:31;35870.88;;;-135.29
15453;BMP280;7827;53.594;9.938;2023-12-22T04:10:00;35855.38;;;-135.29
15453;BMP280;7827;53.594;9.938;2023-12-22T04:12:28;35888.34;;;-135.29
15453;BMP280;7827;53.594;9.938;2023-12-22T04:14:56;35789.47;;;-135.29
15453;BMP280;7827;53.594;9.938;2023-12-22T04:17:25;35756.50;;;-135.29
15453;BMP280;7827;53.594;9.938;2023-12-22T04:19:53;35824.34;;;-135.29
15453;BMP280;7827;53.594;9.938;2023-12-22T04:22:23;35851.50;;;-135.29
15453;BMP280;7827;53.594;9.938;2023-12-22T04:24:52;35828.22;;;-135.29
15453;BMP280;7827;53.594;9.938;2023-12-22T04:27:21;35894.16;;;-135.29
15453;BMP280;7827;53.594;9.938;2023-12-22T04:29:49;35925.19;;;-135.29
15453;BMP280;7827;53.594;9.938;2023-12-22T04:32:18;35843.75;;;-135.29
15453;BMP280;7827;53.594;9.938;2023-12-22T04:34:46;35793.34;;;-135.29
15453;BMP280;7827;53.594;9.938;2023-12-22T04:37:14;35739.03;;;-135.29
15453;BMP280;7827;53.594;9.938;2023-12-22T04:39:44;35836.00;;;-135.29
15453;BMP280;7827;53.594;9.938;2023-12-22T04:42:13;35719.66;;;-135.29
15453;BMP280;7827;53.594;9.938;2023-12-22T04:44:41;35803.03;;;-135.29
15453;BMP280;7827;53.594;9.938;2023-12-22T04:47:10;35857.31;;;-135.29
15453;BMP280;7827;53.594;9.938;2023-12-22T04:49:39;35762.31;;;-135.29
15453;BMP280;7827;53.594;9.938;2023-12-22T04:52:08;35772.00;;;-135.29
15453;BMP280;7827;53.594;9.938;2023-12-22T04:54:36;35820.47;;;-135.29
15453;BMP280;7827;53.594;9.938;2023-12-22T04:57:06;35696.41;;;-135.29
15453;BMP280;7827;53.594;9.938;2023-12-22T04:59:35;35688.63;;;-135.29
15453;BMP280;7827;53.594;9.938;2023-12-22T05:02:03;35646.00;;;-135.29
15453;BMP280;7827;53.594;9.938;2023-12-22T05:04:32;35686.69;;;-135.29
15453;BMP280;7827;53.594;9.938;2023-12-22T05:07:00;35839.88;;;-135.29
15453;BMP280;7827;53.594;9.938;2023-12-22T05:09:34;35816.59;;;-135.29
15453;BMP280;7827;53.594;9.938;2023-12-22T05:12:03;35888.34;;;-135.29
15453;BMP280;7827;53.594;9.938;2023-12-22T05:14:32;35960.06;;;-135.29
15453;BMP280;7827;53.594;9.938;2023-12-22T05:17:01;36004.69;;;-135.29
15453;BMP280;7827;53.594;9.938;2023-12-22T05:19:29;36010.50;;;-135.29
15453;BMP280;7827;53.594;9.938;2023-12-22T05:21:58;36150.09;;;-135.29
15453;BMP280;7827;53.594;9.938;2023-12-22T05:24:27;36140.41;;;-135.29
15453;BMP280;7827;53.594;9.938;2023-12-22T05:26:55;36107.44;;;-135.29
15453;BMP280;7827;53.594;9.938;2023-12-22T05:29:23;36078.34;;;-135.29
15453;BMP280;7827;53.594;9.938;2023-12-22T05:31:53;36105.50;;;-135.29
15453;BMP280;7827;53.594;9.938;2023-12-22T05:34:22;36186.94;;;-135.29
15453;BMP280;7827;53.594;9.938;2023-12-22T05:36:50;36150.09;;;-135.29
15453;BMP280;7827;53.594;9.938;2023-12-22T05:39:19;36064.78;;;-135.29
15453;BMP280;7827;53.594;9.938;2023-12-22T05:41:47;36107.44;;;-135.29
15453;BMP280;7827;53.594;9.938;2023-12-22T05:44:16;36301.34;;;-135.29
15453;BMP280;7827;53.594;9.938;2023-12-22T05:46:44;36392.50;;;-135.29
15453;BMP280;7827;53.594;9.938;2023-12-22T05:49:14;36285.84;;;-135.29
15453;BMP280;7827;53.594;9.938;2023-12-22T05:51:43;36278.09;;;-135.29
15453;BMP280;7827;53.594;9.938;2023-12-22T05:54:11;36349.84;;;-135.29
15453;BMP280;7827;53.594;9.938;2023-12-22T05:56:40;36281.97;;;-135.29
15453;BMP280;7827;53.594;9.938;2023-12-22T05:59:08;36305.22;;;-135.29
15453;BMP280;7827;53.594;9.938;2023-12-22T06:01:36;36309.13;;;-135.29
15453;BMP280;7827;53.594;9.938;2023-12-22T06:04:04;36311.06;;;-135.29
15453;BMP280;7827;53.594;9.938;2023-12-22T06:06:38;36324.63;;;-135.29
15453;BMP280;7827;53.594;9.938;2023-12-22T06:09:06;36396.38;;;-135.29
15453;BMP280;7827;53.594;9.938;2023-12-22T06:11:35;36344.03;;;-135.29
15453;BMP280;7827;53.594;9.938;2023-12-22T06:14:03;36281.97;;;-135.29
15453;BMP280;7827;53.594;9.938;2023-12-22T06:16:32;36301.34;;;-135.29
15453;BMP280;7827;53.594;9.938;2023-12-22T06:19:00;36245.13;;;-135.29
15453;BMP280;7827;53.594;9.938;2023-12-22T06:21:29;36289.72;;;-135.29
15453;BMP280;7827;53.594;9.938;2023-12-22T06:23:59;36216.03;;;-135.29
15453;BMP280;7827;53.594;9.938;2023-12-22T06:26:27;36214.09;;;-135.29
15453;BMP280;7827;53.594;9.938;2023-12-22T06:28:56;36231.53;;;-135.29
15453;BMP280;7827;53.594;9.938;2023-12-22T06:31:25;36249.00;;;-135.29
15453;BMP280;7827;53.594;9.938;2023-12-22T06:33:53;36086.13;;;-135.29
15453;BMP280;7827;53.594;9.938;2023-12-22T06:36:28;36095.81;;;-135.29
15453;BMP280;7827;53.594;9.938;2023-12-22T06:38:59;35965.91;;;-135.29
15453;BMP280;7827;53.594;9.938;2023-12-22T06:41:29;36033.75;;;-135.29
15453;BMP280;7827;53.594;9.938;2023-12-22T06:43:58;36138.47;;;-135.29
15453;BMP280;7827;53.594;9.938;2023-12-22T06:46:28;35987.22;;;-135.29
15453;BMP280;7827;53.594;9.938;2023-12-22T06:48:58;36111.31;;;-135.29
15453;BMP280;7827;53.594;9.938;2023-12-22T06:51:32;35994.97;;;-135.29
15453;BMP280;7827;53.594;9.938;2023-12-22T06:54:04;35991.09;;;-135.29
15453;BMP280;7827;53.594;9.938;2023-12-22T06:56:34;35836.00;;;-135.29
15453;BMP280;7827;53.594;9.938;2023-12-22T06:59:03;35911.59;;;-135.29
15453;BMP280;7827;53.594;9.938;2023-12-22T07:01:34;35863.13;;;-135.29
15453;BMP280;7827;53.594;9.938;2023-12-22T07:04:04;35816.59;;;-135.29
15453;BMP280;7827;53.594;9.938;2023-12-22T07:06:34;35855.38;;;-135.29
15453;BMP280;7827;53.594;9.938;2023-12-22T07:09:30;35913.53;;;-135.29
15453;BMP280;7827;53.594;9.938;2023-12-22T07:11:59;35859.25;;;-135.29
15453;BMP280;7827;53.594;9.938;2023-12-22T07:14:28;35901.91;;;-135.29
15453;BMP280;7827;53.594;9.938;2023-12-22T07:16:56;35851.50;;;-135.29
15453;BMP280;7827;53.594;9.938;2023-12-22T07:19:27;35888.34;;;-135.29
15453;BMP280;7827;53.594;9.938;2023-12-22T07:21:56;35855.38;;;-135.29
15453;BMP280;7827;53.594;9.938;2023-12-22T07:24:24;35851.50;;;-135.29
15453;BMP280;7827;53.594;9.938;2023-12-22T07:26:55;35950.38;;;-135.29
15453;BMP280;7827;53.594;9.938;2023-12-22T07:29:23;35820.47;;;-135.29
15453;BMP280;7827;53.594;9.938;2023-12-22T07:31:52;35818.53;;;-135.29
15453;BMP280;7827;53.594;9.938;2023-12-22T07:34:20;35878.66;;;-135.29
15453;BMP280;7827;53.594;9.938;2023-12-22T07:36:50;35909.66;;;-135.29
15453;BMP280;7827;53.594;9.938;2023-12-22T07:39:32;35841.81;;;-135.29
15453;BMP280;7827;53.594;9.938;2023-12-22T07:42:04;35888.34;;;-135.29
15453;BMP280;7827;53.594;9.938;2023-12-22T07:44:34;36002.72;;;-135.29
15453;BMP280;7827;53.594;9.938;2023-12-22T07:47:03;36045.41;;;-135.29
15453;BMP280;7827;53.594;9.938;2023-12-22T07:49:37;35998.84;;;-135.29
15453;BMP280;7827;53.594;9.938;2023-12-22T07:52:07;35963.97;;;-135.29
15453;BMP280;7827;53.594;9.938;2023-12-22T07:54:36;35921.31;;;-135.29
15453;BMP280;7827;53.594;9.938;2023-12-22T07:57:07;35998.84;;;-135.29
15453;BMP280;7827;53.594;9.938;2023-12-22T07:59:35;35960.06;;;-135.29
15453;BMP280;7827;53.594;9.938;2023-12-22T08:02:04;36049.28;;;-135.29
15453;BMP280;7827;53.594;9.938;2023-12-22T08:04:34;36008.56;;;-135.29
15453;BMP280;7827;53.594;9.938;2023-12-22T08:07:02;35882.53;;;-135.29
15453;BMP280;7827;53.594;9.938;2023-12-22T08:09:31;35948.44;;;-135.29
15453;BMP280;7827;53.594;9.938;2023-12-22T08:12:00;35954.25;;;-135.29
15453;BMP280;7827;53.594;9.938;2023-12-22T08:14:30;36142.34;;;-135.29
15453;BMP280;7827;53.594;9.938;2023-12-22T08:16:59;36060.91;;;-135.29
15453;BMP280;7827;53.594;9.938;2023-12-22T08:19:27;36177.25;;;-135.29
15453;BMP280;7827;53.594;9.938;2023-12-22T08:21:58;36208.28;;;-135.29
15453;BMP280;7827;53.594;9.938;2023-12-22T08:24:32;36301.34;;;-135.29
15453;BMP280;7827;53.594;9.938;2023-12-22T08:27:00;36208.28;;;-135.29
15453;BMP280;7827;53.594;9.938;2023-12-22T08:29:30;36274.22;;;-135.29
15453;BMP280;7827;53.594;9.938;2023-12-22T08:32:00;36186.94;;;-135.29
15453;BMP280;7827;53.594;9.938;2023-12-22T08:34:28;36126.84;;;-135.29
15453;BMP280;7827;53.594;9.938;2023-12-22T08:36:57;36181.13;;;-135.29
15453;BMP280;7827;53.594;9.938;2023-12-22T08:39:27;36084.19;;;-135.29
15453;BMP280;7827;53.594;9.938;2023-12-22T08:41:56;36088.06;;;-135.29
15453;BMP280;7827;53.594;9.938;2023-12-22T08:44:25;35973.66;;;-135.29
15453;BMP280;7827;53.594;9.938;2023-12-22T08:46:56;35998.84;;;-135.29
15453;BMP280;7827;53.594;9.938;2023-12-22T08:49:24;35996.91;;;-135.29
15453;BMP280;7827;53.594;9.938;2023-12-22T08:51:52;35987.22;;;-135.29
15453;BMP280;7827;53.594;9.938;2023-12-22T08:54:21;35944.56;;;-135.29
15453;BMP280;7827;53.594;9.938;2023-12-22T08:56:50;35983.34;;;-135.29
15453;BMP280;7827;53.594;9.938;2023-12-22T08:59:19;36033.75;;;-135.29
15453;BMP280;7827;53.594;9.938;2023-12-22T09:01:48;35942.63;;;-135.29
15453;BMP280;7827;53.594;9.938;2023-12-22T09:04:18;35892.22;;;-135.29
15453;BMP280;7827;53.594;9.938;2023-12-22T09:06:49;35960.06;;;-135.29
15453;BMP280;7827;53.594;9.938;2023-12-22T09:09:18;35963.97;;;-135.29
15453;BMP280;7827;53.594;9.938;2023-12-22T09:11:48;35940.69;;;-135.29
15453;BMP280;7827;53.594;9.938;2023-12-22T09:14:17;35950.38;;;-135.29
15453;BMP280;7827;53.594;9.938;2023-12-22T09:16:45;36002.72;;;-135.29
15453;BMP280;7827;53.594;9.938;2023-12-22T09:19:14;35801.09;;;-135.29
15453;BMP280;7827;53.594;9.938;2023-12-22T09:21:44;35810.78;;;-135.29
15453;BMP280;7827;53.594;9.938;2023-12-22T09:24:12;35768.13;;;-135.29
15453;BMP280;7827;53.594;9.938;2023-12-22T09:26:42;35723.53;;;-135.29
15453;BMP280;7827;53.594;9.938;2023-12-22T09:29:11;35775.88;;;-135.29
15453;BMP280;7827;53.594;9.938;2023-12-22T09:31:39;35667.31;;;-135.29
15453;BMP280;7827;53.594;9.938;2023-12-22T09:34:08;35754.56;;;-135.29
15453;BMP280;7827;53.594;9.938;2023-12-22T09:36:37;35781.69;;;-135.29
15453;BMP280;7827;53.594;9.938;2023-12-22T09:39:06;35663.44;;;-135.29
15453;BMP280;7827;53.594;9.938;2023-12-22T09:41:36;35640.16;;;-135.29
15453;BMP280;7827;53.594;9.938;2023-12-22T09:44:05;35773.94;;;-135.29
15453;BMP280;7827;53.594;9.938;2023-12-22T09:46:35;35742.94;;;-135.29
15453;BMP280;7827;53.594;9.938;2023-12-22T09:49:04;35677.00;;;-135.29
15453;BMP280;7827;53.594;9.938;2023-12-22T09:51:34;35665.38;;;-135.29
15453;BMP280;7827;53.594;9.938;2023-12-22T09:54:06;35696.41;;;-135.29
15453;BMP280;7827;53.594;9.938;2023-12-22T09:56:36;35663.44;;;-135.29
15453;BMP280;7827;53.594;9.938;2023-12-22T09:59:12;35649.88;;;-135.29
15453;BMP280;7827;53.594;9.938;2023-12-22T10:01:44;35551.00;;;-135.29
15453;BMP280;7827;53.594;9.938;2023-12-22T10:04:13;35684.75;;;-135.29
15453;BMP280;7827;53.594;9.938;2023-12-22T10:06:43;35723.53;;;-135.29
15453;BMP280;7827;53.594;9.938;2023-12-22T10:09:16;35746.81;;;-135.29
15453;BMP280;7827;53.594;9.938;2023-12-22T10:11:46;35731.28;;;-135.29
15453;BMP280;7827;53.594;9.938;2023-12-22T10:14:18;35613.03;;;-135.29
15453;BMP280;7827;53.594;9.938;2023-12-22T10:16:49;35708.03;;;-135.29
15453;BMP280;7827;53.594;9.938;2023-12-22T10:19:18;35630.47;;;-135.29
15453;BMP280;7827;53.594;9.938;2023-12-22T10:21:48;35704.16;;;-135.29
15453;BMP280;7827;53.594;9.938;2023-12-22T10:24:40;35692.50;;;-135.29
15453;BMP280;7827;53.594;9.938;2023-12-22T10:27:11;35649.88;;;-135.29
15453;BMP280;7827;53.594;9.938;2023-12-22T10:29:40;35642.09;;;-135.29
15453;BMP280;7827;53.594;9.938;2023-12-22T10:32:09;35541.28;;;-135.29
15453;BMP280;7827;53.594;9.938;2023-12-22T10:34:37;35549.06;;;-135.29
15453;BMP280;7827;53.594;9.938;2023-12-22T10:37:06;35607.22;;;-135.29
15453;BMP280;7827;53.594;9.938;2023-12-22T10:39:36;35651.81;;;-135.29
15453;BMP280;7827;53.594;9.938;2023-12-22T10:42:07;35721.59;;;-135.29
15453;BMP280;7827;53.594;9.938;2023-12-22T10:44:40;35890.28;;;-135.29
15453;BMP280;7827;53.594;9.938;2023-12-22T10:47:09;35950.38;;;-135.29
15453;BMP280;7827;53.594;9.938;2023-12-22T10:49:38;36006.63;;;-135.29
15453;BMP280;7827;53.594;9.938;2023-12-22T10:52:11;35960.06;;;-135.29
15453;BMP280;7827;53.594;9.938;2023-12-22T10:54:43;35969.78;;;-135.29
15453;BMP280;7827;53.594;9.938;2023-12-22T10:57:17;36068.66;;;-135.29
15453;BMP280;7827;53.594;9.938;2023-12-22T10:59:47;36107.44;;;-135.29
15453;BMP280;7827;53.594;9.938;2023-12-22T11:02:19;36037.63;;;-135.29
15453;BMP280;7827;53.594;9.938;2023-12-22T11:04:57;36012.44;;;-135.29
15453;BMP280;7827;53.594;9.938;2023-12-22T11:07:28;35960.06;;;-135.29
15453;BMP280;7827;53.594;9.938;2023-12-22T11:10:03;35981.41;;;-135.29
15453;BMP280;7827;53.594;9.938;2023-12-22T11:12:36;35847.63;;;-135.29
15453;BMP280;7827;53.594;9.938;2023-12-22T11:15:06;35929.06;;;-135.29
15453;BMP280;7827;53.594;9.938;2023-12-22T11:17:37;36037.63;;;-135.29
15453;BMP280;7827;53.594;9.938;2023-12-22T11:20:10;35901.91;;;-135.29
15453;BMP280;7827;53.594;9.938;2023-12-22T11:22:42;36029.88;;;-135.29
15453;BMP280;7827;53.594;9.938;2023-12-22T11:25:11;35981.41;;;-135.29
15453;BMP280;7827;53.594;9.938;2023-12-22T11:27:48;35913.53;;;-135.29
15453;BMP280;7827;53.594;9.938;2023-12-22T11:30:20;36022.13;;;-135.29
15453;BMP280;7827;53.594;9.938;2023-12-22T11:32:51;35996.91;;;-135.29
15453;BMP280;7827;53.594;9.938;2023-12-22T11:35:23;35804.97;;;-135.29
15453;BMP280;7827;53.594;9.938;2023-12-22T11:38:01;35979.47;;;-135.29
15453;BMP280;7827;53.594;9.938;2023-12-22T11:40:31;36018.25;;;-135.29
15453;BMP280;7827;53.594;9.938;2023-12-22T11:43:02;36010.50;;;-135.29
15453;BMP280;7827;53.594;9.938;2023-12-22T11:45:32;35948.44;;;-135.29
15453;BMP280;7827;53.594;9.938;2023-12-22T11:48:10;35975.59;;;-135.29
15453;BMP280;7827;53.594;9.938;2023-12-22T11:50:39;35934.88;;;-135.29
15453;BMP280;7827;53.594;9.938;2023-12-22T11:53:21;35975.59;;;-135.29
15453;BMP280;7827;53.594;9.938;2023-12-22T11:56:00;36022.13;;;-135.29
15453;BMP280;7827;53.594;9.938;2023-12-22T11:58:38;35894.16;;;-135.29
15453;BMP280;7827;53.594;9.938;2023-12-22T12:01:09;35874.75;;;-135.29
15453;BMP280;7827;53.594;9.938;2023-12-22T12:03:48;35878.66;;;-135.29
15453;BMP280;7827;53.594;9.938;2023-12-22T12:06:25;35820.47;;;-135.29
15453;BMP280;7827;53.594;9.938;2023-12-22T12:09:00;35836.00;;;-135.29
15453;BMP280;7827;53.594;9.938;2023-12-22T12:12:09;35915.47;;;-135.29
15453;BMP280;7827;53.594;9.938;2023-12-22T12:14:43;35836.00;;;-135.29
15453;BMP280;7827;53.594;9.938;2023-12-22T12:17:15;35927.13;;;-135.29
15453;BMP280;7827;53.594;9.938;2023-12-22T12:19:47;35913.53;;;-135.29
15453;BMP280;7827;53.594;9.938;2023-12-22T12:22:17;35832.09;;;-135.29
15453;BMP280;7827;53.594;9.938;2023-12-22T12:24:46;35841.81;;;-135.29
15453;BMP280;7827;53.594;9.938;2023-12-22T12:27:18;35870.88;;;-135.29
15453;BMP280;7827;53.594;9.938;2023-12-22T12:29:49;35898.03;;;-135.29
15453;BMP280;7827;53.594;9.938;2023-12-22T12:32:18;35952.31;;;-135.29
15453;BMP280;7827;53.594;9.938;2023-12-22T12:34:49;35855.38;;;-135.29
15453;BMP280;7827;53.594;9.938;2023-12-22T12:37:21;35843.75;;;-135.29
15453;BMP280;7827;53.594;9.938;2023-12-22T12:39:57;35725.47;;;-135.29
15453;BMP280;7827;53.594;9.938;2023-12-22T12:42:29;35824.34;;;-135.29
15453;BMP280;7827;53.594;9.938;2023-12-22T12:45:00;35810.78;;;-135.29
15453;BMP280;7827;53.594;9.938;2023-12-22T12:47:28;35878.66;;;-135.29
15453;BMP280;7827;53.594;9.938;2023-12-22T12:49:57;35865.06;;;-135.29
15453;BMP280;7827;53.594;9.938;2023-12-22T12:52:27;35754.56;;;-135.29
15453;BMP280;7827;53.594;9.938;2023-12-22T12:54:56;35744.88;;;-135.29
15453;BMP280;7827;53.594;9.938;2023-12-22T12:57:26;35781.69;;;-135.29
15453;BMP280;7827;53.594;9.938;2023-12-22T12:59:54;35847.63;;;-135.29
15453;BMP280;7827;53.594;9.938;2023-12-22T13:02:26;35626.59;;;-135.29
15453;BMP280;7827;53.594;9.938;2023-12-22T13:04:55;35723.53;;;-135.29
15453;BMP280;7827;53.594;9.938;2023-12-22T13:07:24;35727.41;;;-135.29
15453;BMP280;7827;53.594;9.938;2023-12-22T13:09:54;35721.59;;;-135.29
15453;BMP280;7827;53.594;9.938;2023-12-22T13:12:24;35855.38;;;-135.29
15453;BMP280;7827;53.594;9.938;2023-12-22T13:14:53;35735.16;;;-135.29
15453;BMP280;7827;53.594;9.938;2023-12-22T13:17:21;35690.56;;;-135.29
15453;BMP280;7827;53.594;9.938;2023-12-22T13:19:52;35692.50;;;-135.29
15453;BMP280;7827;53.594;9.938;2023-12-22T13:22:20;35839.88;;;-135.29
15453;BMP280;7827;53.594;9.938;2023-12-22T13:24:56;35614.97;;;-135.29
15453;BMP280;7827;53.594;9.938;2023-12-22T13:27:25;35754.56;;;-135.29
15453;BMP280;7827;53.594;9.938;2023-12-22T13:29:53;35711.91;;;-135.29
15453;BMP280;7827;53.594;9.938;2023-12-22T13:32:23;35773.94;;;-135.29
15453;BMP280;7827;53.594;9.938;2023-12-22T13:34:54;35758.44;;;-135.29
15453;BMP280;7827;53.594;9.938;2023-12-22T13:37:24;35766.19;;;-135.29
15453;BMP280;7827;53.594;9.938;2023-12-22T13:39:54;35758.44;;;-135.29
15453;BMP280;7827;53.594;9.938;2023-12-22T13:42:23;35775.88;;;-135.29
15453;BMP280;7827;53.594;9.938;2023-12-22T13:44:51;35661.50;;;-135.29
15453;BMP280;7827;53.594;9.938;2023-12-22T13:47:21;35613.03;;;-135.29
15453;BMP280;7827;53.594;9.938;2023-12-22T13:49:53;35717.72;;;-135.29
